Plover, Wisconsin
Current Conditions -  °F | °C
As of 3:15 PM on Saturday 22 Nov 2014 (Local Time) from KSTE Reporting Station
Haze Haze  
Wind Chill: 35°   Ceiling: 500
Heat Index: 35°   Visibility: 1.7mi
Dew Point: 34°   Wind: 3mph
Humidity: 97%   Direction: 210°SSW
Pressure: 29.74"   Gusts: NA
Location:  44.45°N, 89.54°W
Report Text: KSTE 222115Z AUTO 21003KT 1 3/4SM BR OVC005 02/01 A2974 RMK AO2 T00150010
Loading
Personal Weather Stations






























Interactive Weather Map New forecast layout! Learn more

10-Day Weather Forecast

Advertisements
Track Severe Weather on mobile